Time;durP1;ratioP1;P1;durP2;ratioP2;P2;SDS_P1;SDS_P2;PMS_P1;PMS_P2;Temp;Humidity;BMP_temperature;BMP_pressure;BME280_temperature;BME280_humidity;BME280_pressure;Samples;Min_cycle;Max_cycle;Signal;HPM_P1;HPM_P2
2023/01/27 00:00:19;;;;;;;44.47;20.65;;;;;;;;;;5037689;28;20045;-86
2023/01/27 00:02:46;;;;;;;47.85;21.45;;;;;;;;;;5037729;28;20429;-86
2023/01/27 00:05:14;;;;;;;46.17;19.42;;;;;;;;;;5037195;28;20059;-86
2023/01/27 00:07:44;;;;;;;44.70;21.35;;;;;;;;;;5037360;28;20044;-86
2023/01/27 00:10:14;;;;;;;35.40;14.50;;;;;;;;;;5036845;28;20507;-86
2023/01/27 00:15:29;;;;;;;28.35;13.45;;;;;;;;;;5054904;28;20052;-87
2023/01/27 00:17:56;;;;;;;34.35;17.30;;;;;;;;;;5053790;28;20071;-86
2023/01/27 00:26:05;;;;;;;40.50;17.90;;;;;;;;;;5054209;28;20069;-87
2023/01/27 00:28:36;;;;;;;33.70;15.57;;;;;;;;;;5036713;28;20049;-86
2023/01/27 00:31:04;;;;;;;36.42;17.55;;;;;;;;;;5054073;28;20059;-86
2023/01/27 00:33:31;;;;;;;36.60;17.85;;;;;;;;;;5036905;28;20488;-86
2023/01/27 00:36:03;;;;;;;43.55;19.58;;;;;;;;;;5036713;28;20049;-87
2023/01/27 00:38:31;;;;;;;43.25;19.42;;;;;;;;;;5054229;28;20053;-86
2023/01/27 00:43:44;;;;;;;44.22;18.92;;;;;;;;;;5054144;28;20045;-86
2023/01/27 00:46:11;;;;;;;46.83;20.42;;;;;;;;;;5036510;28;20068;-87
2023/01/27 00:48:38;;;;;;;43.33;18.95;;;;;;;;;;5036568;28;20067;-87
2023/01/27 00:51:06;;;;;;;43.92;19.33;;;;;;;;;;5036398;28;20492;-86
2023/01/27 00:53:33;;;;;;;52.78;21.00;;;;;;;;;;5036110;28;20056;-86
2023/01/27 00:56:00;;;;;;;42.38;18.60;;;;;;;;;;5036063;28;20049;-87
2023/01/27 00:58:28;;;;;;;44.92;19.60;;;;;;;;;;5035786;28;20053;-86
2023/01/27 01:00:58;;;;;;;41.25;18.75;;;;;;;;;;5036408;28;20468;-87
2023/01/27 01:03:26;;;;;;;37.47;18.17;;;;;;;;;;5036276;28;20545;-87
2023/01/27 01:05:53;;;;;;;43.70;17.67;;;;;;;;;;5036132;28;20660;-87
2023/01/27 01:08:20;;;;;;;39.67;17.77;;;;;;;;;;5035477;28;20049;-86
2023/01/27 01:10:47;;;;;;;34.53;15.43;;;;;;;;;;5035981;28;20060;-86
2023/01/27 01:13:14;;;;;;;39.88;17.75;;;;;;;;;;5035942;28;20053;-87
2023/01/27 01:15:42;;;;;;;33.97;15.77;;;;;;;;;;5036180;28;20049;-87
2023/01/27 01:18:10;;;;;;;33.35;14.25;;;;;;;;;;5035373;28;20067;-86
2023/01/27 01:20:44;;;;;;;36.53;16.90;;;;;;;;;;5036048;28;20049;-87
2023/01/27 01:23:11;;;;;;;33.05;14.77;;;;;;;;;;5036068;28;20128;-87
2023/01/27 01:25:39;;;;;;;35.17;15.25;;;;;;;;;;5035964;28;20057;-87
2023/01/27 01:28:07;;;;;;;31.63;14.65;;;;;;;;;;5036145;28;20041;-86
2023/01/27 01:30:34;;;;;;;36.75;16.08;;;;;;;;;;5047913;28;20124;-87
2023/01/27 01:33:02;;;;;;;35.80;16.40;;;;;;;;;;5041622;28;20091;-86
2023/01/27 01:35:30;;;;;;;35.80;16.02;;;;;;;;;;5035484;28;20064;-87
2023/01/27 01:37:57;;;;;;;40.33;17.17;;;;;;;;;;5035792;28;20044;-86
2023/01/27 01:40:24;;;;;;;39.33;17.25;;;;;;;;;;5036027;28;20118;-86
2023/01/27 01:42:56;;;;;;;35.42;17.00;;;;;;;;;;5035775;28;20151;-86
2023/01/27 01:45:43;;;;;;;35.78;17.15;;;;;;;;;;5035620;28;20081;-87
2023/01/27 01:48:12;;;;;;;33.40;15.02;;;;;;;;;;5035458;28;20091;-86
2023/01/27 01:50:42;;;;;;;37.88;17.73;;;;;;;;;;5035827;28;20071;-87
2023/01/27 01:53:10;;;;;;;41.53;18.45;;;;;;;;;;5035763;28;20045;-87
2023/01/27 01:55:39;;;;;;;41.60;18.33;;;;;;;;;;5052966;28;20509;-87
2023/01/27 01:58:07;;;;;;;37.65;17.30;;;;;;;;;;5035531;28;20053;-87
2023/01/27 02:00:34;;;;;;;36.45;17.02;;;;;;;;;;5035579;28;20053;-87
2023/01/27 02:03:03;;;;;;;37.63;17.38;;;;;;;;;;5035580;28;20045;-87
2023/01/27 02:05:34;;;;;;;41.35;18.42;;;;;;;;;;5035387;28;20045;-87
2023/01/27 02:08:28;;;;;;;41.40;17.25;;;;;;;;;;5036132;28;20053;-87
2023/01/27 02:10:55;;;;;;;45.10;19.10;;;;;;;;;;5035815;28;20063;-87
2023/01/27 02:13:22;;;;;;;37.58;17.58;;;;;;;;;;5039410;28;20045;-87
2023/01/27 02:15:51;;;;;;;45.10;19.63;;;;;;;;;;5039461;28;20057;-87
2023/01/27 02:18:18;;;;;;;43.58;19.00;;;;;;;;;;5039693;28;20045;-87
2023/01/27 02:20:47;;;;;;;43.45;17.98;;;;;;;;;;5039453;28;20045;-88
2023/01/27 02:23:33;;;;;;;42.53;17.98;;;;;;;;;;5039316;28;20413;-87
2023/01/27 02:26:04;;;;;;;43.65;18.50;;;;;;;;;;5039191;28;20053;-87
2023/01/27 02:28:32;;;;;;;41.15;17.80;;;;;;;;;;5039535;28;20061;-86
2023/01/27 02:30:59;;;;;;;50.03;19.20;;;;;;;;;;5038754;28;20045;-86
2023/01/27 02:33:26;;;;;;;43.67;18.15;;;;;;;;;;5039060;28;20057;-86
2023/01/27 02:36:06;;;;;;;47.67;19.33;;;;;;;;;;5038916;28;20394;-86
2023/01/27 02:38:35;;;;;;;45.42;18.42;;;;;;;;;;5038906;28;20053;-86
2023/01/27 02:41:09;;;;;;;45.38;18.67;;;;;;;;;;5039900;28;20059;-87
2023/01/27 02:43:36;;;;;;;44.58;17.10;;;;;;;;;;5064429;28;20040;-86
2023/01/27 02:46:03;;;;;;;40.88;17.55;;;;;;;;;;5048272;28;20051;-87
2023/01/27 02:48:31;;;;;;;44.67;17.55;;;;;;;;;;5038858;28;20470;-87
2023/01/27 02:50:58;;;;;;;49.83;18.52;;;;;;;;;;5038606;28;20049;-86
2023/01/27 02:53:25;;;;;;;46.90;18.00;;;;;;;;;;5038701;28;20052;-86
2023/01/27 02:55:52;;;;;;;50.38;20.13;;;;;;;;;;5037937;28;20056;-87
2023/01/27 02:58:20;;;;;;;49.33;17.73;;;;;;;;;;5037567;28;20429;-86
2023/01/27 03:00:47;;;;;;;50.40;19.17;;;;;;;;;;5038514;28;20049;-86
2023/01/27 03:03:14;;;;;;;49.72;20.00;;;;;;;;;;5055878;28;20088;-87
2023/01/27 03:05:42;;;;;;;45.30;18.90;;;;;;;;;;5038372;28;20047;-86
2023/01/27 03:08:09;;;;;;;46.70;17.00;;;;;;;;;;5038434;28;20057;-86
2023/01/27 03:10:36;;;;;;;36.30;15.82;;;;;;;;;;5038371;28;20041;-86
2023/01/27 03:13:03;;;;;;;31.85;14.70;;;;;;;;;;5038381;28;20057;-86
2023/01/27 03:18:16;;;;;;;38.42;17.65;;;;;;;;;;5055882;28;20135;-86
2023/01/27 03:20:45;;;;;;;33.97;14.95;;;;;;;;;;5037265;28;20561;-86
2023/01/27 03:23:13;;;;;;;36.97;17.30;;;;;;;;;;5037978;28;20073;-86
2023/01/27 03:25:42;;;;;;;37.83;16.70;;;;;;;;;;5037757;28;20068;-87
2023/01/27 03:28:09;;;;;;;34.63;16.90;;;;;;;;;;5055258;28;20048;-87
2023/01/27 03:30:36;;;;;;;34.60;16.63;;;;;;;;;;5037885;28;20053;-86
2023/01/27 03:33:05;;;;;;;35.80;17.08;;;;;;;;;;5037944;28;20112;-86
2023/01/27 03:35:37;;;;;;;33.22;16.73;;;;;;;;;;5037692;28;20410;-86
2023/01/27 03:46:23;;;;;;;25.38;12.45;;;;;;;;;;5055121;28;20056;-86
2023/01/27 03:48:51;;;;;;;27.95;13.23;;;;;;;;;;5037413;28;20057;-86
2023/01/27 03:51:20;;;;;;;23.85;11.73;;;;;;;;;;5037462;28;20128;-86
2023/01/27 03:53:47;;;;;;;25.42;13.15;;;;;;;;;;5037346;28;20144;-87
2023/01/27 03:56:15;;;;;;;22.63;10.85;;;;;;;;;;5056399;28;20059;-86
2023/01/27 03:58:43;;;;;;;26.35;12.07;;;;;;;;;;5053577;28;20136;-86
2023/01/27 04:01:13;;;;;;;25.45;11.93;;;;;;;;;;5037321;28;20084;-85
2023/01/27 04:09:19;;;;;;;21.33;10.93;;;;;;;;;;5054820;28;20063;-86
2023/01/27 04:11:55;;;;;;;22.25;11.40;;;;;;;;;;5037309;28;20055;-85
2023/01/27 04:14:29;;;;;;;18.60;10.30;;;;;;;;;;5037064;28;20115;-86
2023/01/27 04:17:01;;;;;;;20.38;10.32;;;;;;;;;;5036934;28;20083;-86
2023/01/27 04:19:29;;;;;;;22.33;10.65;;;;;;;;;;5036931;28;20123;-86
2023/01/27 04:21:56;;;;;;;18.17;9.15;;;;;;;;;;5036593;28;20053;-85
2023/01/27 04:24:24;;;;;;;18.95;10.48;;;;;;;;;;5036949;28;20160;-86
2023/01/27 04:26:53;;;;;;;21.77;11.00;;;;;;;;;;5037021;28;20106;-86
2023/01/27 04:29:22;;;;;;;20.35;10.75;;;;;;;;;;5037201;28;20053;-86
2023/01/27 04:31:49;;;;;;;19.33;9.45;;;;;;;;;;5036447;28;20059;-86
2023/01/27 04:34:17;;;;;;;20.42;9.70;;;;;;;;;;5036665;28;20136;-86
2023/01/27 04:36:44;;;;;;;20.10;10.10;;;;;;;;;;5036527;28;20079;-86
2023/01/27 04:39:11;;;;;;;19.92;9.55;;;;;;;;;;5036923;28;20052;-86
2023/01/27 04:41:39;;;;;;;20.05;9.32;;;;;;;;;;5054171;28;20045;-86
2023/01/27 04:44:06;;;;;;;18.67;9.73;;;;;;;;;;5036464;28;20044;-85
2023/01/27 04:46:34;;;;;;;18.80;9.65;;;;;;;;;;5036393;28;20489;-86
2023/01/27 04:49:01;;;;;;;20.77;10.68;;;;;;;;;;5036308;28;20413;-86
2023/01/27 04:51:29;;;;;;;16.75;9.00;;;;;;;;;;5036392;28;20421;-86
2023/01/27 04:53:56;;;;;;;19.83;9.65;;;;;;;;;;5036211;28;20087;-86
2023/01/27 04:56:31;;;;;;;18.95;9.93;;;;;;;;;;5036063;28;20053;-86
2023/01/27 04:58:59;;;;;;;20.13;10.20;;;;;;;;;;5036122;28;20053;-85
2023/01/27 05:01:27;;;;;;;20.48;10.23;;;;;;;;;;5053591;28;20048;-86
2023/01/27 05:03:54;;;;;;;19.52;9.75;;;;;;;;;;5035955;28;20052;-86
2023/01/27 05:06:22;;;;;;;16.30;9.27;;;;;;;;;;5036083;28;20053;-86
2023/01/27 05:08:49;;;;;;;17.67;9.63;;;;;;;;;;5037069;28;20425;-86
2023/01/27 05:11:17;;;;;;;20.90;10.98;;;;;;;;;;5051852;28;20416;-86
2023/01/27 05:13:44;;;;;;;16.02;9.52;;;;;;;;;;5036176;28;20055;-85
2023/01/27 05:16:16;;;;;;;20.45;10.50;;;;;;;;;;5035526;28;20052;-86
2023/01/27 05:18:45;;;;;;;22.17;11.23;;;;;;;;;;5035019;28;20053;-86
2023/01/27 05:21:13;;;;;;;20.17;10.10;;;;;;;;;;5036057;28;20059;-85
2023/01/27 05:23:41;;;;;;;17.35;9.63;;;;;;;;;;5035725;28;20049;-86
2023/01/27 05:26:13;;;;;;;19.77;10.57;;;;;;;;;;5035539;28;20053;-86
2023/01/27 05:28:41;;;;;;;24.10;10.48;;;;;;;;;;5035535;28;20089;-85
2023/01/27 05:31:13;;;;;;;18.67;9.73;;;;;;;;;;5035755;28;20541;-86
2023/01/27 05:33:41;;;;;;;20.85;11.45;;;;;;;;;;5035767;28;20137;-86
2023/01/27 05:36:09;;;;;;;19.27;10.43;;;;;;;;;;5035481;28;20128;-85
2023/01/27 05:38:36;;;;;;;21.85;10.93;;;;;;;;;;5035572;28;20071;-86
2023/01/27 05:41:04;;;;;;;21.17;10.32;;;;;;;;;;5035560;28;20450;-86
2023/01/27 05:43:32;;;;;;;20.58;10.00;;;;;;;;;;5034943;28;20405;-86
2023/01/27 05:46:16;;;;;;;18.10;10.50;;;;;;;;;;5035391;28;20057;-86
2023/01/27 05:48:44;;;;;;;21.02;10.15;;;;;;;;;;5035694;28;20056;-86
2023/01/27 05:51:12;;;;;;;21.17;9.90;;;;;;;;;;5035686;28;20498;-85
2023/01/27 05:53:41;;;;;;;20.20;10.40;;;;;;;;;;5035389;28;20080;-86
2023/01/27 05:56:09;;;;;;;18.88;9.45;;;;;;;;;;5052827;28;20053;-85
2023/01/27 05:58:36;;;;;;;17.73;9.00;;;;;;;;;;5035686;28;20048;-86
2023/01/27 06:01:08;;;;;;;20.10;9.45;;;;;;;;;;5035551;28;20053;-86
2023/01/27 06:03:35;;;;;;;17.17;9.80;;;;;;;;;;5035676;28;20049;-86
2023/01/27 06:06:03;;;;;;;17.13;9.43;;;;;;;;;;5035214;28;20446;-85
2023/01/27 06:08:30;;;;;;;16.45;9.32;;;;;;;;;;5035462;28;20512;-86
2023/01/27 06:10:58;;;;;;;16.27;8.43;;;;;;;;;;5035210;28;20490;-86
2023/01/27 06:13:25;;;;;;;18.85;9.70;;;;;;;;;;5035573;28;20087;-86
2023/01/27 06:15:54;;;;;;;16.17;8.38;;;;;;;;;;5034990;28;20139;-86
2023/01/27 06:18:21;;;;;;;17.98;8.55;;;;;;;;;;5035395;28;20041;-86
2023/01/27 06:20:49;;;;;;;14.75;8.27;;;;;;;;;;5034953;28;20065;-85
2023/01/27 06:23:17;;;;;;;22.73;13.18;;;;;;;;;;5036135;28;20053;-85
2023/01/27 06:25:48;;;;;;;28.02;13.00;;;;;;;;;;5049088;28;20048;-85
2023/01/27 06:28:16;;;;;;;16.38;8.80;;;;;;;;;;5035246;28;20053;-86
2023/01/27 06:30:55;;;;;;;20.52;10.73;;;;;;;;;;5037021;28;20417;-86
2023/01/27 06:33:23;;;;;;;51.47;31.10;;;;;;;;;;5034991;28;20053;-86
2023/01/27 06:35:50;;;;;;;25.45;14.13;;;;;;;;;;5034946;28;20053;-85
2023/01/27 06:38:17;;;;;;;19.67;12.48;;;;;;;;;;5035220;28;20132;-86
2023/01/27 06:40:44;;;;;;;17.63;10.38;;;;;;;;;;5035259;28;20056;-86
2023/01/27 06:43:14;;;;;;;18.63;9.85;;;;;;;;;;5035088;28;20159;-86
2023/01/27 06:45:41;;;;;;;20.65;9.35;;;;;;;;;;5034777;28;20102;-85
2023/01/27 06:48:08;;;;;;;14.77;8.95;;;;;;;;;;5035096;28;20045;-85
2023/01/27 06:50:36;;;;;;;19.33;9.85;;;;;;;;;;5034969;28;20049;-86
2023/01/27 06:53:05;;;;;;;26.98;14.45;;;;;;;;;;5035125;28;20379;-86
2023/01/27 06:55:32;;;;;;;22.83;12.65;;;;;;;;;;5035270;28;20136;-85
2023/01/27 06:58:03;;;;;;;21.63;12.20;;;;;;;;;;5038205;28;20052;-86
2023/01/27 07:00:30;;;;;;;38.78;17.38;;;;;;;;;;5038483;28;20083;-85
2023/01/27 07:02:57;;;;;;;107.72;38.30;;;;;;;;;;5038140;28;20461;-86
2023/01/27 07:05:24;;;;;;;75.07;27.27;;;;;;;;;;5055816;28;20060;-86
2023/01/27 07:07:52;;;;;;;42.63;18.75;;;;;;;;;;5038482;28;20057;-86
2023/01/27 07:10:19;;;;;;;28.25;12.88;;;;;;;;;;5038234;28;20059;-86
2023/01/27 07:12:46;;;;;;;22.35;11.00;;;;;;;;;;5038222;28;20045;-86
2023/01/27 07:15:13;;;;;;;18.52;10.80;;;;;;;;;;5037914;28;20055;-86
2023/01/27 07:17:40;;;;;;;19.13;11.15;;;;;;;;;;5055695;28;20075;-85
2023/01/27 07:20:09;;;;;;;23.20;12.23;;;;;;;;;;5038167;28;20053;-85
2023/01/27 07:22:36;;;;;;;27.83;15.70;;;;;;;;;;5038019;28;20052;-86
2023/01/27 07:25:03;;;;;;;22.80;12.35;;;;;;;;;;5037972;28;20041;-86
2023/01/27 07:27:31;;;;;;;19.73;10.98;;;;;;;;;;5055156;28;20237;-86
2023/01/27 07:29:58;;;;;;;18.35;10.98;;;;;;;;;;5037742;28;20049;-86
2023/01/27 07:32:25;;;;;;;24.48;12.07;;;;;;;;;;5037573;28;20489;-86
2023/01/27 07:34:54;;;;;;;21.23;11.55;;;;;;;;;;5038066;28;20049;-86
2023/01/27 07:37:21;;;;;;;19.13;11.88;;;;;;;;;;5037677;28;20045;-86
2023/01/27 07:39:48;;;;;;;25.42;11.85;;;;;;;;;;5051796;28;20057;-85
2023/01/27 07:42:16;;;;;;;22.85;11.30;;;;;;;;;;5055119;28;20151;-85
2023/01/27 07:44:43;;;;;;;22.30;11.57;;;;;;;;;;5037182;28;20503;-84
2023/01/27 07:47:10;;;;;;;23.63;11.65;;;;;;;;;;5037434;28;20071;-86
2023/01/27 07:49:37;;;;;;;24.17;12.88;;;;;;;;;;5037472;28;20045;-86
2023/01/27 07:52:04;;;;;;;22.48;11.15;;;;;;;;;;5037416;28;20049;-86
2023/01/27 07:54:32;;;;;;;24.92;11.98;;;;;;;;;;5037083;28;20056;-86
2023/01/27 07:57:00;;;;;;;32.47;15.20;;;;;;;;;;5037025;28;20053;-86
2023/01/27 07:59:27;;;;;;;33.22;14.93;;;;;;;;;;5037451;28;20128;-86
2023/01/27 08:01:54;;;;;;;19.65;10.65;;;;;;;;;;5037236;28;20139;-86
2023/01/27 08:04:22;;;;;;;17.70;10.73;;;;;;;;;;5037002;28;20136;-86
2023/01/27 08:06:49;;;;;;;18.15;9.82;;;;;;;;;;5036666;28;20052;-86
2023/01/27 08:09:16;;;;;;;17.92;10.38;;;;;;;;;;5037065;28;20458;-86
2023/01/27 08:11:43;;;;;;;19.23;9.52;;;;;;;;;;5037196;28;20052;-85
2023/01/27 08:14:10;;;;;;;20.35;9.68;;;;;;;;;;5037032;28;20072;-85
2023/01/27 08:16:37;;;;;;;16.75;9.52;;;;;;;;;;5036683;28;20059;-86
2023/01/27 08:19:05;;;;;;;16.25;9.07;;;;;;;;;;5037126;28;20045;-86
2023/01/27 08:21:32;;;;;;;15.88;9.07;;;;;;;;;;5036791;28;20052;-86
2023/01/27 08:23:59;;;;;;;18.13;9.20;;;;;;;;;;5036808;28;20045;-86
2023/01/27 08:26:27;;;;;;;35.70;17.73;;;;;;;;;;5036931;28;20048;-86
2023/01/27 08:28:54;;;;;;;16.52;9.60;;;;;;;;;;5036928;28;20390;-86
2023/01/27 08:31:21;;;;;;;20.35;11.32;;;;;;;;;;5036758;28;20136;-86
2023/01/27 08:33:53;;;;;;;21.73;10.70;;;;;;;;;;5036485;28;20151;-86
2023/01/27 08:36:21;;;;;;;15.90;9.57;;;;;;;;;;5036294;28;20505;-86
2023/01/27 08:38:48;;;;;;;17.45;9.75;;;;;;;;;;5036460;28;20472;-85
2023/01/27 08:41:17;;;;;;;16.38;9.85;;;;;;;;;;5036158;28;20449;-86
2023/01/27 08:43:45;;;;;;;18.73;9.75;;;;;;;;;;5036283;28;20493;-86
2023/01/27 08:46:12;;;;;;;20.33;10.95;;;;;;;;;;5036310;28;20394;-86
2023/01/27 08:48:40;;;;;;;15.85;9.73;;;;;;;;;;5035881;28;20064;-86
2023/01/27 08:51:08;;;;;;;17.52;9.60;;;;;;;;;;5036134;28;20048;-86
2023/01/27 08:53:38;;;;;;;16.02;9.35;;;;;;;;;;5046182;28;20528;-85
2023/01/27 08:56:06;;;;;;;19.83;9.18;;;;;;;;;;5036023;28;20080;-85
2023/01/27 08:58:35;;;;;;;15.20;10.18;;;;;;;;;;5034663;28;20132;-86
2023/01/27 09:01:03;;;;;;;16.27;9.30;;;;;;;;;;5036034;28;20083;-86
2023/01/27 09:03:31;;;;;;;15.35;10.18;;;;;;;;;;5036086;28;20071;-86
2023/01/27 09:05:58;;;;;;;17.13;10.02;;;;;;;;;;5035296;28;20048;-86
2023/01/27 09:08:26;;;;;;;20.02;14.68;;;;;;;;;;5036164;28;20049;-86
2023/01/27 09:10:53;;;;;;;16.13;10.77;;;;;;;;;;5036064;28;20053;-85
2023/01/27 09:13:23;;;;;;;15.65;9.45;;;;;;;;;;5035840;28;20049;-86
2023/01/27 09:15:51;;;;;;;21.33;13.63;;;;;;;;;;5035175;28;20052;-85
2023/01/27 09:18:18;;;;;;;17.77;10.60;;;;;;;;;;5035356;28;20107;-86
2023/01/27 09:20:46;;;;;;;19.58;11.80;;;;;;;;;;5036051;28;20048;-86
2023/01/27 09:23:13;;;;;;;13.20;8.35;;;;;;;;;;5035852;28;20049;-85
2023/01/27 09:25:40;;;;;;;10.63;7.40;;;;;;;;;;5035636;28;20056;-85
2023/01/27 09:28:15;;;;;;;20.02;12.60;;;;;;;;;;5035506;28;20486;-85
2023/01/27 09:30:46;;;;;;;23.25;17.88;;;;;;;;;;5035698;28;20159;-85
2023/01/27 09:33:14;;;;;;;14.32;8.45;;;;;;;;;;5035834;28;20159;-86
2023/01/27 09:35:53;;;;;;;27.92;18.88;;;;;;;;;;5036213;28;20048;-86
2023/01/27 09:38:21;;;;;;;23.50;14.38;;;;;;;;;;5053630;28;20493;-86
2023/01/27 09:41:04;;;;;;;107.35;50.85;;;;;;;;;;5035309;28;20056;-86
2023/01/27 09:43:55;;;;;;;26.23;16.25;;;;;;;;;;5035606;28;20052;-85
2023/01/27 09:46:22;;;;;;;41.70;21.98;;;;;;;;;;5035635;28;20053;-85
2023/01/27 09:49:08;;;;;;;17.40;11.07;;;;;;;;;;5035363;28;20049;-85
2023/01/27 09:51:46;;;;;;;20.50;12.88;;;;;;;;;;5035453;28;20044;-85
2023/01/27 09:54:26;;;;;;;25.40;17.50;;;;;;;;;;5035567;28;20057;-85
2023/01/27 09:57:14;;;;;;;19.38;12.98;;;;;;;;;;5035196;28;20079;-85
2023/01/27 09:59:41;;;;;;;16.77;10.88;;;;;;;;;;5035520;28;20057;-86
2023/01/27 10:02:32;;;;;;;14.55;10.45;;;;;;;;;;5052853;28;20049;-85
2023/01/27 10:05:18;;;;;;;19.90;9.52;;;;;;;;;;5035750;28;20127;-85
2023/01/27 10:07:53;;;;;;;23.95;16.90;;;;;;;;;;5035953;28;20064;-85
2023/01/27 10:10:42;;;;;;;17.45;11.27;;;;;;;;;;5035393;28;20049;-86
2023/01/27 10:13:35;;;;;;;23.73;15.25;;;;;;;;;;5035621;28;20059;-85
2023/01/27 10:16:14;;;;;;;19.23;12.13;;;;;;;;;;5035208;28;20489;-85
2023/01/27 10:18:50;;;;;;;17.00;11.85;;;;;;;;;;5035398;28;20473;-86
2023/01/27 10:21:40;;;;;;;16.58;11.77;;;;;;;;;;5035419;28;20051;-86
2023/01/27 10:24:26;;;;;;;14.85;10.10;;;;;;;;;;5010399;28;20061;-86
2023/01/27 10:27:00;;;;;;;16.50;10.50;;;;;;;;;;5035213;28;20444;-86
2023/01/27 10:29:27;;;;;;;;;;;;;;;;;;5036550;28;20041;-85
2023/01/27 10:31:54;;;;;;;15.68;9.85;;;;;;;;;;5039083;28;19927;-86
2023/01/27 10:34:21;;;;;;;22.73;14.25;;;;;;;;;;5039037;28;20083;-86
2023/01/27 10:37:00;;;;;;;15.38;10.77;;;;;;;;;;5038664;28;20489;-85
2023/01/27 10:39:33;;;;;;;12.25;8.80;;;;;;;;;;5038900;28;20045;-85
2023/01/27 10:42:12;;;;;;;13.00;8.93;;;;;;;;;;5056508;28;20453;-86
2023/01/27 10:44:42;;;;;;;11.45;8.43;;;;;;;;;;5038973;28;20041;-86
2023/01/27 10:47:25;;;;;;;13.45;8.43;;;;;;;;;;5038703;28;20055;-86
2023/01/27 10:50:05;;;;;;;14.10;8.83;;;;;;;;;;5054554;28;20456;-87
2023/01/27 10:52:38;;;;;;;13.25;9.18;;;;;;;;;;5056439;28;20373;-87
2023/01/27 10:55:14;;;;;;;27.50;21.98;;;;;;;;;;5055581;28;20075;-86
2023/01/27 10:57:48;;;;;;;21.38;14.75;;;;;;;;;;5055620;28;20117;-86
2023/01/27 11:00:28;;;;;;;17.45;10.98;;;;;;;;;;5037932;28;20048;-86
2023/01/27 11:03:27;;;;;;;14.35;9.55;;;;;;;;;;5040938;28;20410;-86
2023/01/27 11:05:58;;;;;;;18.48;10.13;;;;;;;;;;5038132;28;20060;-85
2023/01/27 11:08:27;;;;;;;14.60;10.07;;;;;;;;;;5037955;28;20394;-85
2023/01/27 11:13:42;;;;;;;17.02;9.63;;;;;;;;;;5055580;28;20106;-86
2023/01/27 11:16:14;;;;;;;18.92;9.75;;;;;;;;;;5037706;28;20049;-86
2023/01/27 11:18:45;;;;;;;17.05;9.70;;;;;;;;;;5055733;28;20094;-86
2023/01/27 11:21:17;;;;;;;20.25;10.75;;;;;;;;;;5064179;28;20132;-86
2023/01/27 11:23:47;;;;;;;14.43;8.77;;;;;;;;;;5037988;28;20045;-86
2023/01/27 11:26:21;;;;;;;18.23;10.15;;;;;;;;;;5054982;28;20505;-86
2023/01/27 11:28:59;;;;;;;15.25;9.80;;;;;;;;;;5037938;28;20170;-86
2023/01/27 11:31:34;;;;;;;17.10;10.77;;;;;;;;;;5037773;28;20131;-86
2023/01/27 11:34:06;;;;;;;18.00;12.27;;;;;;;;;;5038048;28;20401;-86
2023/01/27 11:36:34;;;;;;;17.13;11.70;;;;;;;;;;5037542;28;20053;-86
2023/01/27 11:39:03;;;;;;;17.02;10.05;;;;;;;;;;5037710;28;20477;-83
2023/01/27 11:41:36;;;;;;;22.98;15.80;;;;;;;;;;5054348;28;20132;-86
2023/01/27 11:44:05;;;;;;;28.50;21.75;;;;;;;;;;5037672;28;20465;-86
2023/01/27 11:46:34;;;;;;;23.20;17.05;;;;;;;;;;5037568;28;20127;-86
2023/01/27 11:49:02;;;;;;;24.88;14.73;;;;;;;;;;5037540;28;20080;-86
2023/01/27 11:51:37;;;;;;;18.58;10.93;;;;;;;;;;5055064;28;20045;-86
2023/01/27 11:54:20;;;;;;;17.23;11.98;;;;;;;;;;5037306;28;20053;-86
2023/01/27 11:56:48;;;;;;;44.97;30.33;;;;;;;;;;5054913;28;20056;-86
2023/01/27 11:59:23;;;;;;;103.45;72.88;;;;;;;;;;5037557;28;20409;-86
2023/01/27 12:02:01;;;;;;;49.88;31.05;;;;;;;;;;5037002;28;20074;-86
2023/01/27 12:04:38;;;;;;;113.45;64.53;;;;;;;;;;5037279;28;20041;-85
2023/01/27 12:07:10;;;;;;;111.70;60.20;;;;;;;;;;5037109;28;20127;-86
2023/01/27 12:09:38;;;;;;;24.45;14.32;;;;;;;;;;5037057;28;20051;-86
2023/01/27 12:12:15;;;;;;;68.65;39.28;;;;;;;;;;5037054;28;20051;-86
2023/01/27 12:14:51;;;;;;;40.67;29.70;;;;;;;;;;5036842;28;20060;-86
2023/01/27 12:17:24;;;;;;;25.88;15.48;;;;;;;;;;5036420;28;20060;-86
2023/01/27 12:19:53;;;;;;;39.35;22.10;;;;;;;;;;5036837;28;20088;-86
2023/01/27 12:22:26;;;;;;;28.23;19.23;;;;;;;;;;5036617;28;20184;-86
2023/01/27 12:24:55;;;;;;;26.27;14.80;;;;;;;;;;5036497;28;20047;-86
2023/01/27 12:27:23;;;;;;;22.92;13.45;;;;;;;;;;5041837;28;20053;-85
2023/01/27 12:29:54;;;;;;;19.85;10.73;;;;;;;;;;5054461;28;20088;-86
2023/01/27 12:32:23;;;;;;;26.23;14.90;;;;;;;;;;5038983;28;20045;-85
2023/01/27 12:34:55;;;;;;;21.73;11.73;;;;;;;;;;5057619;28;20057;-86
2023/01/27 12:37:27;;;;;;;22.73;13.55;;;;;;;;;;5036263;28;20493;-86
2023/01/27 12:40:04;;;;;;;20.55;12.40;;;;;;;;;;5036354;28;20080;-86
2023/01/27 12:42:36;;;;;;;17.60;10.68;;;;;;;;;;5036462;28;20063;-86
2023/01/27 12:45:19;;;;;;;17.27;10.52;;;;;;;;;;5036495;28;20053;-86
2023/01/27 12:47:55;;;;;;;17.00;12.40;;;;;;;;;;5036380;28;20386;-86
2023/01/27 12:50:26;;;;;;;16.27;9.35;;;;;;;;;;5036647;28;20049;-86
2023/01/27 12:52:54;;;;;;;15.43;9.27;;;;;;;;;;5036532;28;20059;-86
2023/01/27 12:55:29;;;;;;;10.30;7.97;;;;;;;;;;5054082;28;20060;-86
2023/01/27 12:57:56;;;;;;;14.10;7.47;;;;;;;;;;5036572;28;20079;-86
2023/01/27 13:00:24;;;;;;;12.50;8.48;;;;;;;;;;5035977;28;20053;-87
2023/01/27 13:02:53;;;;;;;10.95;8.10;;;;;;;;;;5035782;28;20078;-86
2023/01/27 13:05:20;;;;;;;11.57;7.43;;;;;;;;;;5036003;28;20060;-86
2023/01/27 13:07:50;;;;;;;9.75;7.43;;;;;;;;;;5036074;28;20045;-86
2023/01/27 13:10:26;;;;;;;10.07;6.97;;;;;;;;;;5035895;28;20474;-86
2023/01/27 13:12:55;;;;;;;10.90;6.32;;;;;;;;;;5053639;28;20504;-86
2023/01/27 13:15:27;;;;;;;13.52;7.82;;;;;;;;;;5035706;28;20580;-86
2023/01/27 13:17:55;;;;;;;8.73;7.22;;;;;;;;;;5035545;28;20045;-86
2023/01/27 13:20:39;;;;;;;10.48;6.63;;;;;;;;;;5035762;28;20045;-86
2023/01/27 13:23:21;;;;;;;10.48;6.82;;;;;;;;;;5035793;28;20059;-86
2023/01/27 13:25:49;;;;;;;9.70;7.65;;;;;;;;;;5035712;28;20059;-86
2023/01/27 13:28:20;;;;;;;8.80;5.97;;;;;;;;;;5035746;28;20045;-86
2023/01/27 13:30:49;;;;;;;11.30;7.78;;;;;;;;;;5035494;28;20040;-86
2023/01/27 13:33:22;;;;;;;10.95;7.72;;;;;;;;;;5035336;28;20060;-86
2023/01/27 13:35:56;;;;;;;17.13;9.55;;;;;;;;;;5035343;28;20446;-86
2023/01/27 13:38:34;;;;;;;12.77;8.27;;;;;;;;;;5034933;28;20057;-85
2023/01/27 13:41:05;;;;;;;13.90;8.88;;;;;;;;;;5035637;28;20049;-86
2023/01/27 13:43:35;;;;;;;13.95;8.82;;;;;;;;;;5052896;28;20118;-85
2023/01/27 13:46:12;;;;;;;12.90;9.38;;;;;;;;;;5035451;28;20063;-85
2023/01/27 13:48:48;;;;;;;11.98;9.15;;;;;;;;;;5036117;28;20051;-86
2023/01/27 13:51:17;;;;;;;20.23;8.60;;;;;;;;;;5035389;28;20094;-85
2023/01/27 13:53:46;;;;;;;16.27;9.25;;;;;;;;;;5053009;28;20063;-86
2023/01/27 13:56:19;;;;;;;11.38;8.80;;;;;;;;;;5035256;28;20090;-86
2023/01/27 13:58:46;;;;;;;;;;;;;;;;;;5035328;28;20076;-86
2023/01/27 14:01:26;;;;;;;16.55;8.07;;;;;;;;;;5035234;28;20383;-84
2023/01/27 14:04:12;;;;;;;13.52;8.45;;;;;;;;;;5035734;28;20555;-86
2023/01/27 14:06:43;;;;;;;11.85;7.47;;;;;;;;;;5039584;28;20045;-86
2023/01/27 14:09:11;;;;;;;11.40;6.93;;;;;;;;;;5039386;28;20052;-86
2023/01/27 14:11:42;;;;;;;10.88;7.80;;;;;;;;;;5039214;28;20048;-86
2023/01/27 14:14:21;;;;;;;9.98;7.47;;;;;;;;;;5039599;28;20045;-86
2023/01/27 14:16:58;;;;;;;17.00;8.27;;;;;;;;;;5056920;28;20049;-85
2023/01/27 14:19:26;;;;;;;11.82;8.65;;;;;;;;;;5039198;28;20084;-86
2023/01/27 14:21:59;;;;;;;13.18;8.93;;;;;;;;;;5038831;28;20084;-86
2023/01/27 14:24:43;;;;;;;15.40;9.65;;;;;;;;;;5039018;28;20052;-85
2023/01/27 14:27:16;;;;;;;27.58;14.90;;;;;;;;;;5056908;28;20136;-85
2023/01/27 14:29:52;;;;;;;16.13;10.48;;;;;;;;;;5039157;28;20059;-86
2023/01/27 14:32:32;;;;;;;14.45;10.40;;;;;;;;;;5038610;28;20079;-84
2023/01/27 14:35:04;;;;;;;14.27;9.88;;;;;;;;;;5038664;28;20040;-85
2023/01/27 14:37:40;;;;;;;42.05;21.83;;;;;;;;;;5038725;28;20520;-85
2023/01/27 14:40:20;;;;;;;17.02;11.25;;;;;;;;;;5056336;28;20088;-85
2023/01/27 14:42:47;;;;;;;14.07;10.00;;;;;;;;;;5038526;28;20451;-85
2023/01/27 14:45:21;;;;;;;12.15;9.02;;;;;;;;;;5038669;28;20511;-85
2023/01/27 14:47:57;;;;;;;14.30;9.18;;;;;;;;;;5056540;28;20132;-85
2023/01/27 14:50:31;;;;;;;13.18;9.18;;;;;;;;;;5038864;28;20409;-84
2023/01/27 14:52:59;;;;;;;12.98;8.55;;;;;;;;;;5039197;28;20397;-85
2023/01/27 14:55:31;;;;;;;13.15;9.32;;;;;;;;;;5038478;28;20175;-85
2023/01/27 14:58:17;;;;;;;88.57;36.90;;;;;;;;;;5039292;28;20059;-85
2023/01/27 15:00:49;;;;;;;137.05;50.97;;;;;;;;;;5040567;28;20127;-85
2023/01/27 15:03:19;;;;;;;191.63;67.63;;;;;;;;;;5037937;28;20060;-86
2023/01/27 15:05:57;;;;;;;379.45;127.18;;;;;;;;;;5037711;28;20052;-85
2023/01/27 15:08:39;;;;;;;77.97;29.33;;;;;;;;;;5038288;28;20045;-85
2023/01/27 15:11:21;;;;;;;145.07;60.25;;;;;;;;;;5038378;28;20055;-85